sensor_id;sensor_type;location;lat;lon;timestamp;temperature;humidity
23957;DHT22;12165;45.458;11.062;2022-07-29T00:00:07;21.80;99.90
23957;DHT22;12165;45.458;11.062;2022-07-29T00:02:34;21.80;99.90
23957;DHT22;12165;45.458;11.062;2022-07-29T00:05:02;21.80;99.90
23957;DHT22;12165;45.458;11.062;2022-07-29T00:07:29;21.80;99.90
23957;DHT22;12165;45.458;11.062;2022-07-29T00:09:57;21.80;99.90
23957;DHT22;12165;45.458;11.062;2022-07-29T00:12:25;21.80;99.90
23957;DHT22;12165;45.458;11.062;2022-07-29T00:14:56;21.80;99.90
23957;DHT22;12165;45.458;11.062;2022-07-29T00:17:26;21.60;99.90
23957;DHT22;12165;45.458;11.062;2022-07-29T00:19:53;21.80;99.90
23957;DHT22;12165;45.458;11.062;2022-07-29T00:22:20;21.80;99.90
23957;DHT22;12165;45.458;11.062;2022-07-29T00:24:48;21.70;99.90
23957;DHT22;12165;45.458;11.062;2022-07-29T00:27:17;21.80;99.90
23957;DHT22;12165;45.458;11.062;2022-07-29T00:29:44;22.00;99.90
23957;DHT22;12165;45.458;11.062;2022-07-29T00:32:11;21.90;99.90
23957;DHT22;12165;45.458;11.062;2022-07-29T00:34:39;22.10;99.90
23957;DHT22;12165;45.458;11.062;2022-07-29T00:37:25;22.00;99.90
23957;DHT22;12165;45.458;11.062;2022-07-29T00:39:51;21.90;99.90
23957;DHT22;12165;45.458;11.062;2022-07-29T00:42:19;22.00;99.90
23957;DHT22;12165;45.458;11.062;2022-07-29T00:44:46;22.00;99.90
23957;DHT22;12165;45.458;11.062;2022-07-29T00:47:13;22.00;99.90
23957;DHT22;12165;45.458;11.062;2022-07-29T00:49:41;22.00;99.90
23957;DHT22;12165;45.458;11.062;2022-07-29T00:52:09;21.80;99.90
23957;DHT22;12165;45.458;11.062;2022-07-29T00:54:39;21.70;99.90
23957;DHT22;12165;45.458;11.062;2022-07-29T00:57:11;21.70;99.90
23957;DHT22;12165;45.458;11.062;2022-07-29T00:59:39;21.60;99.90
23957;DHT22;12165;45.458;11.062;2022-07-29T01:02:06;21.60;99.90
23957;DHT22;12165;45.458;11.062;2022-07-29T01:04:33;21.60;99.90
23957;DHT22;12165;45.458;11.062;2022-07-29T01:07:01;21.50;99.90
23957;DHT22;12165;45.458;11.062;2022-07-29T01:09:30;21.60;99.90
23957;DHT22;12165;45.458;11.062;2022-07-29T01:12:18;21.70;99.90
23957;DHT22;12165;45.458;11.062;2022-07-29T01:14:46;21.70;99.90
23957;DHT22;12165;45.458;11.062;2022-07-29T01:17:26;21.80;99.90
23957;DHT22;12165;45.458;11.062;2022-07-29T01:20:13;21.80;99.90
23957;DHT22;12165;45.458;11.062;2022-07-29T01:25:54;21.80;99.90
23957;DHT22;12165;45.458;11.062;2022-07-29T01:31:24;21.70;99.90
23957;DHT22;12165;45.458;11.062;2022-07-29T01:34:06;21.70;99.90
23957;DHT22;12165;45.458;11.062;2022-07-29T01:36:45;21.70;99.90
23957;DHT22;12165;45.458;11.062;2022-07-29T01:39:23;21.60;99.90
23957;DHT22;12165;45.458;11.062;2022-07-29T01:45:19;21.70;99.90
23957;DHT22;12165;45.458;11.062;2022-07-29T01:50:26;21.80;99.90
23957;DHT22;12165;45.458;11.062;2022-07-29T01:53:01;21.70;99.90
23957;DHT22;12165;45.458;11.062;2022-07-29T01:55:34;21.80;99.90
23957;DHT22;12165;45.458;11.062;2022-07-29T01:58:03;21.90;99.90
23957;DHT22;12165;45.458;11.062;2022-07-29T02:00:32;21.80;99.90
23957;DHT22;12165;45.458;11.062;2022-07-29T02:03:07;21.70;99.90
23957;DHT22;12165;45.458;11.062;2022-07-29T02:05:35;21.70;99.90
23957;DHT22;12165;45.458;11.062;2022-07-29T02:08:05;21.80;99.90
23957;DHT22;12165;45.458;11.062;2022-07-29T02:10:34;21.90;99.90
23957;DHT22;12165;45.458;11.062;2022-07-29T02:13:02;21.90;99.90
23957;DHT22;12165;45.458;11.062;2022-07-29T02:15:32;21.70;99.90
23957;DHT22;12165;45.458;11.062;2022-07-29T02:18:20;21.60;99.90
23957;DHT22;12165;45.458;11.062;2022-07-29T02:20:52;21.60;99.90
23957;DHT22;12165;45.458;11.062;2022-07-29T02:23:22;21.50;99.90
23957;DHT22;12165;45.458;11.062;2022-07-29T02:25:53;21.50;99.90
23957;DHT22;12165;45.458;11.062;2022-07-29T02:28:30;21.50;99.90
23957;DHT22;12165;45.458;11.062;2022-07-29T02:31:01;21.40;99.90
23957;DHT22;12165;45.458;11.062;2022-07-29T02:33:30;21.30;99.90
23957;DHT22;12165;45.458;11.062;2022-07-29T02:35:58;21.40;99.90
23957;DHT22;12165;45.458;11.062;2022-07-29T02:38:27;21.40;99.90
23957;DHT22;12165;45.458;11.062;2022-07-29T02:41:20;21.40;99.90
23957;DHT22;12165;45.458;11.062;2022-07-29T02:43:49;21.40;99.90
23957;DHT22;12165;45.458;11.062;2022-07-29T02:46:20;21.30;99.90
23957;DHT22;12165;45.458;11.062;2022-07-29T02:51:38;21.10;99.90
23957;DHT22;12165;45.458;11.062;2022-07-29T02:54:14;21.20;99.90
23957;DHT22;12165;45.458;11.062;2022-07-29T02:56:44;21.10;99.90
23957;DHT22;12165;45.458;11.062;2022-07-29T02:59:13;21.10;99.90
23957;DHT22;12165;45.458;11.062;2022-07-29T03:01:42;21.20;99.90
23957;DHT22;12165;45.458;11.062;2022-07-29T03:04:12;21.00;99.90
23957;DHT22;12165;45.458;11.062;2022-07-29T03:06:43;20.90;99.90
23957;DHT22;12165;45.458;11.062;2022-07-29T03:09:12;20.60;99.90
23957;DHT22;12165;45.458;11.062;2022-07-29T03:11:41;20.60;99.90
23957;DHT22;12165;45.458;11.062;2022-07-29T03:14:18;20.60;99.90
23957;DHT22;12165;45.458;11.062;2022-07-29T03:16:47;20.80;99.90
23957;DHT22;12165;45.458;11.062;2022-07-29T03:19:14;20.80;99.90
23957;DHT22;12165;45.458;11.062;2022-07-29T03:21:41;20.80;99.90
23957;DHT22;12165;45.458;11.062;2022-07-29T03:24:08;20.80;99.90
23957;DHT22;12165;45.458;11.062;2022-07-29T03:26:36;20.90;99.90
23957;DHT22;12165;45.458;11.062;2022-07-29T03:29:04;20.80;99.90
23957;DHT22;12165;45.458;11.062;2022-07-29T03:31:31;20.90;99.90
23957;DHT22;12165;45.458;11.062;2022-07-29T03:33:59;21.00;99.90
23957;DHT22;12165;45.458;11.062;2022-07-29T03:36:26;21.00;99.90
23957;DHT22;12165;45.458;11.062;2022-07-29T03:38:53;21.10;99.90
23957;DHT22;12165;45.458;11.062;2022-07-29T03:41:22;21.00;99.90
23957;DHT22;12165;45.458;11.062;2022-07-29T03:43:51;20.90;99.90
23957;DHT22;12165;45.458;11.062;2022-07-29T03:46:21;21.00;99.90
23957;DHT22;12165;45.458;11.062;2022-07-29T03:48:53;20.90;99.90
23957;DHT22;12165;45.458;11.062;2022-07-29T03:51:23;21.10;99.90
23957;DHT22;12165;45.458;11.062;2022-07-29T03:54:00;21.10;99.90
23957;DHT22;12165;45.458;11.062;2022-07-29T03:56:39;21.10;99.90
23957;DHT22;12165;45.458;11.062;2022-07-29T03:59:07;21.10;99.90
23957;DHT22;12165;45.458;11.062;2022-07-29T04:01:34;21.20;99.90
23957;DHT22;12165;45.458;11.062;2022-07-29T04:04:02;21.40;99.90
23957;DHT22;12165;45.458;11.062;2022-07-29T04:06:41;21.40;99.90
23957;DHT22;12165;45.458;11.062;2022-07-29T04:09:08;21.40;99.90
23957;DHT22;12165;45.458;11.062;2022-07-29T04:11:38;21.50;99.90
23957;DHT22;12165;45.458;11.062;2022-07-29T04:14:25;21.40;99.90
23957;DHT22;12165;45.458;11.062;2022-07-29T04:16:52;21.60;99.90
23957;DHT22;12165;45.458;11.062;2022-07-29T04:19:19;21.60;99.90
23957;DHT22;12165;45.458;11.062;2022-07-29T04:21:46;21.70;99.90
23957;DHT22;12165;45.458;11.062;2022-07-29T04:24:13;21.70;99.90
23957;DHT22;12165;45.458;11.062;2022-07-29T04:26:42;21.80;99.90
23957;DHT22;12165;45.458;11.062;2022-07-29T04:29:09;21.80;99.90
23957;DHT22;12165;45.458;11.062;2022-07-29T04:31:38;21.70;99.90
23957;DHT22;12165;45.458;11.062;2022-07-29T04:34:05;21.70;99.90
23957;DHT22;12165;45.458;11.062;2022-07-29T04:36:32;21.70;99.90
23957;DHT22;12165;45.458;11.062;2022-07-29T04:38:59;21.50;99.90
23957;DHT22;12165;45.458;11.062;2022-07-29T04:41:28;21.40;99.90
23957;DHT22;12165;45.458;11.062;2022-07-29T04:43:59;21.30;99.90
23957;DHT22;12165;45.458;11.062;2022-07-29T04:46:27;21.30;99.90
23957;DHT22;12165;45.458;11.062;2022-07-29T04:48:54;21.30;99.90
23957;DHT22;12165;45.458;11.062;2022-07-29T04:51:22;21.40;99.90
23957;DHT22;12165;45.458;11.062;2022-07-29T04:53:49;21.60;99.90
23957;DHT22;12165;45.458;11.062;2022-07-29T04:56:16;21.80;99.90
23957;DHT22;12165;45.458;11.062;2022-07-29T04:58:43;21.80;99.90
23957;DHT22;12165;45.458;11.062;2022-07-29T05:01:09;22.10;99.90
23957;DHT22;12165;45.458;11.062;2022-07-29T05:03:37;22.10;99.90
23957;DHT22;12165;45.458;11.062;2022-07-29T05:06:04;22.20;99.90
23957;DHT22;12165;45.458;11.062;2022-07-29T05:08:31;22.20;99.90
23957;DHT22;12165;45.458;11.062;2022-07-29T05:10:58;22.30;99.90
23957;DHT22;12165;45.458;11.062;2022-07-29T05:13:38;22.60;99.90
23957;DHT22;12165;45.458;11.062;2022-07-29T05:16:11;22.90;99.90
23957;DHT22;12165;45.458;11.062;2022-07-29T05:18:40;23.00;99.90
23957;DHT22;12165;45.458;11.062;2022-07-29T05:21:07;23.10;99.90
23957;DHT22;12165;45.458;11.062;2022-07-29T05:23:34;23.10;99.90
23957;DHT22;12165;45.458;11.062;2022-07-29T05:26:01;23.30;99.90
23957;DHT22;12165;45.458;11.062;2022-07-29T05:28:28;23.50;99.90
23957;DHT22;12165;45.458;11.062;2022-07-29T05:30:55;23.50;99.90
23957;DHT22;12165;45.458;11.062;2022-07-29T05:33:23;23.60;99.90
23957;DHT22;12165;45.458;11.062;2022-07-29T05:36:03;23.70;99.90
23957;DHT22;12165;45.458;11.062;2022-07-29T05:38:34;23.70;99.90
23957;DHT22;12165;45.458;11.062;2022-07-29T05:41:02;23.90;99.90
23957;DHT22;12165;45.458;11.062;2022-07-29T05:43:29;24.10;99.90
23957;DHT22;12165;45.458;11.062;2022-07-29T05:45:56;25.90;99.90
23957;DHT22;12165;45.458;11.062;2022-07-29T05:48:24;25.50;99.90
23957;DHT22;12165;45.458;11.062;2022-07-29T05:50:52;28.00;99.90
23957;DHT22;12165;45.458;11.062;2022-07-29T05:53:19;30.80;99.90
23957;DHT22;12165;45.458;11.062;2022-07-29T05:55:48;31.40;99.90
23957;DHT22;12165;45.458;11.062;2022-07-29T05:58:15;29.80;99.90
23957;DHT22;12165;45.458;11.062;2022-07-29T06:00:42;29.20;99.90
23957;DHT22;12165;45.458;11.062;2022-07-29T06:03:09;30.90;99.90
23957;DHT22;12165;45.458;11.062;2022-07-29T06:05:36;29.80;99.90
23957;DHT22;12165;45.458;11.062;2022-07-29T06:08:03;27.50;99.90
23957;DHT22;12165;45.458;11.062;2022-07-29T06:10:37;26.40;99.90
23957;DHT22;12165;45.458;11.062;2022-07-29T06:13:04;27.10;99.90
23957;DHT22;12165;45.458;11.062;2022-07-29T06:15:31;26.80;99.90
23957;DHT22;12165;45.458;11.062;2022-07-29T06:17:59;26.40;99.90
23957;DHT22;12165;45.458;11.062;2022-07-29T06:20:29;25.90;99.90
23957;DHT22;12165;45.458;11.062;2022-07-29T06:22:57;25.60;99.90
23957;DHT22;12165;45.458;11.062;2022-07-29T06:25:24;25.70;99.90
23957;DHT22;12165;45.458;11.062;2022-07-29T06:27:52;25.90;99.90
23957;DHT22;12165;45.458;11.062;2022-07-29T06:30:19;25.80;99.90
23957;DHT22;12165;45.458;11.062;2022-07-29T06:32:46;25.70;99.90
23957;DHT22;12165;45.458;11.062;2022-07-29T06:35:13;25.70;99.90
23957;DHT22;12165;45.458;11.062;2022-07-29T06:38:01;27.70;99.90
23957;DHT22;12165;45.458;11.062;2022-07-29T06:40:35;32.20;99.90
23957;DHT22;12165;45.458;11.062;2022-07-29T06:43:20;32.90;99.90
23957;DHT22;12165;45.458;11.062;2022-07-29T06:45:48;32.30;99.90
23957;DHT22;12165;45.458;11.062;2022-07-29T06:48:15;34.30;99.90
23957;DHT22;12165;45.458;11.062;2022-07-29T06:50:42;34.30;99.90
23957;DHT22;12165;45.458;11.062;2022-07-29T06:53:09;35.40;99.90
23957;DHT22;12165;45.458;11.062;2022-07-29T06:55:36;35.70;99.90
23957;DHT22;12165;45.458;11.062;2022-07-29T06:58:03;35.60;99.90
23957;DHT22;12165;45.458;11.062;2022-07-29T07:00:30;36.20;99.90
23957;DHT22;12165;45.458;11.062;2022-07-29T07:02:57;36.60;99.90
23957;DHT22;12165;45.458;11.062;2022-07-29T07:05:24;37.30;99.90
23957;DHT22;12165;45.458;11.062;2022-07-29T07:07:51;37.30;99.90
23957;DHT22;12165;45.458;11.062;2022-07-29T07:10:18;36.80;99.90
23957;DHT22;12165;45.458;11.062;2022-07-29T07:12:45;36.80;99.90
23957;DHT22;12165;45.458;11.062;2022-07-29T07:15:12;36.90;99.90
23957;DHT22;12165;45.458;11.062;2022-07-29T07:17:39;37.50;99.90
23957;DHT22;12165;45.458;11.062;2022-07-29T07:20:06;37.50;99.90
23957;DHT22;12165;45.458;11.062;2022-07-29T07:22:34;37.30;99.90
23957;DHT22;12165;45.458;11.062;2022-07-29T07:25:05;38.20;99.10
23957;DHT22;12165;45.458;11.062;2022-07-29T07:27:32;37.50;99.60
23957;DHT22;12165;45.458;11.062;2022-07-29T07:29:59;36.10;99.90
23957;DHT22;12165;45.458;11.062;2022-07-29T07:32:26;32.60;99.90
23957;DHT22;12165;45.458;11.062;2022-07-29T07:34:53;30.50;99.90
23957;DHT22;12165;45.458;11.062;2022-07-29T07:37:20;31.40;99.90
23957;DHT22;12165;45.458;11.062;2022-07-29T07:39:47;34.80;99.90
23957;DHT22;12165;45.458;11.062;2022-07-29T07:42:14;36.20;99.90
23957;DHT22;12165;45.458;11.062;2022-07-29T07:44:41;35.60;99.90
23957;DHT22;12165;45.458;11.062;2022-07-29T07:47:28;35.00;99.90
23957;DHT22;12165;45.458;11.062;2022-07-29T07:49:55;34.30;99.90
23957;DHT22;12165;45.458;11.062;2022-07-29T07:52:22;32.70;99.90
23957;DHT22;12165;45.458;11.062;2022-07-29T07:54:49;31.60;99.90
23957;DHT22;12165;45.458;11.062;2022-07-29T07:57:16;30.90;99.90
23957;DHT22;12165;45.458;11.062;2022-07-29T07:59:43;30.70;99.90
23957;DHT22;12165;45.458;11.062;2022-07-29T08:02:10;30.80;99.90
23957;DHT22;12165;45.458;11.062;2022-07-29T08:04:37;30.70;99.90
23957;DHT22;12165;45.458;11.062;2022-07-29T08:07:07;30.80;99.90
23957;DHT22;12165;45.458;11.062;2022-07-29T08:09:35;31.00;99.90
23957;DHT22;12165;45.458;11.062;2022-07-29T08:12:03;31.10;99.90
23957;DHT22;12165;45.458;11.062;2022-07-29T08:14:31;31.30;99.90
23957;DHT22;12165;45.458;11.062;2022-07-29T08:16:58;31.00;99.90
23957;DHT22;12165;45.458;11.062;2022-07-29T08:19:25;30.90;99.90
23957;DHT22;12165;45.458;11.062;2022-07-29T08:21:52;30.90;99.90
23957;DHT22;12165;45.458;11.062;2022-07-29T08:24:21;30.90;99.90
23957;DHT22;12165;45.458;11.062;2022-07-29T08:27:07;30.90;99.90
23957;DHT22;12165;45.458;11.062;2022-07-29T08:29:54;31.00;99.90
23957;DHT22;12165;45.458;11.062;2022-07-29T08:32:22;30.90;99.90
23957;DHT22;12165;45.458;11.062;2022-07-29T08:35:09;31.00;99.90
23957;DHT22;12165;45.458;11.062;2022-07-29T08:37:36;30.80;99.90
23957;DHT22;12165;45.458;11.062;2022-07-29T08:40:04;31.10;99.90
23957;DHT22;12165;45.458;11.062;2022-07-29T08:42:32;31.30;99.90
23957;DHT22;12165;45.458;11.062;2022-07-29T08:44:59;31.40;99.90
23957;DHT22;12165;45.458;11.062;2022-07-29T08:47:27;31.10;99.90
23957;DHT22;12165;45.458;11.062;2022-07-29T08:49:54;31.60;99.90
23957;DHT22;12165;45.458;11.062;2022-07-29T08:52:26;32.10;99.90
23957;DHT22;12165;45.458;11.062;2022-07-29T08:54:56;31.90;99.90
23957;DHT22;12165;45.458;11.062;2022-07-29T08:57:24;31.80;99.90
23957;DHT22;12165;45.458;11.062;2022-07-29T08:59:54;31.80;99.90
23957;DHT22;12165;45.458;11.062;2022-07-29T09:02:22;31.60;99.90
23957;DHT22;12165;45.458;11.062;2022-07-29T09:04:49;31.80;99.90
23957;DHT22;12165;45.458;11.062;2022-07-29T09:07:17;31.80;99.90
23957;DHT22;12165;45.458;11.062;2022-07-29T09:09:45;31.70;99.90
23957;DHT22;12165;45.458;11.062;2022-07-29T09:12:12;32.00;99.90
23957;DHT22;12165;45.458;11.062;2022-07-29T09:14:55;32.20;99.90
23957;DHT22;12165;45.458;11.062;2022-07-29T09:17:41;32.30;99.90
23957;DHT22;12165;45.458;11.062;2022-07-29T09:20:13;32.70;99.90
23957;DHT22;12165;45.458;11.062;2022-07-29T09:22:41;32.70;99.90
23957;DHT22;12165;45.458;11.062;2022-07-29T09:25:10;32.70;99.90
23957;DHT22;12165;45.458;11.062;2022-07-29T09:27:38;32.70;99.90
23957;DHT22;12165;45.458;11.062;2022-07-29T09:30:10;32.70;99.90
23957;DHT22;12165;45.458;11.062;2022-07-29T09:32:55;32.60;99.90
23957;DHT22;12165;45.458;11.062;2022-07-29T09:35:24;32.30;99.90
23957;DHT22;12165;45.458;11.062;2022-07-29T09:37:53;32.70;99.90
23957;DHT22;12165;45.458;11.062;2022-07-29T09:40:22;32.90;99.90
23957;DHT22;12165;45.458;11.062;2022-07-29T09:42:50;32.60;99.90
23957;DHT22;12165;45.458;11.062;2022-07-29T09:45:33;32.40;99.90
23957;DHT22;12165;45.458;11.062;2022-07-29T09:48:15;32.80;99.90
23957;DHT22;12165;45.458;11.062;2022-07-29T09:50:43;33.10;99.90
23957;DHT22;12165;45.458;11.062;2022-07-29T09:53:11;33.40;99.90
23957;DHT22;12165;45.458;11.062;2022-07-29T09:55:51;33.40;99.90
23957;DHT22;12165;45.458;11.062;2022-07-29T09:58:19;33.80;99.90
23957;DHT22;12165;45.458;11.062;2022-07-29T10:00:48;33.70;99.90
23957;DHT22;12165;45.458;11.062;2022-07-29T10:03:17;33.80;99.90
23957;DHT22;12165;45.458;11.062;2022-07-29T10:05:45;33.70;99.90
23957;DHT22;12165;45.458;11.062;2022-07-29T10:08:13;33.30;99.90
23957;DHT22;12165;45.458;11.062;2022-07-29T10:10:42;33.20;99.90
23957;DHT22;12165;45.458;11.062;2022-07-29T10:13:12;33.30;99.90
23957;DHT22;12165;45.458;11.062;2022-07-29T10:15:44;33.70;99.90
23957;DHT22;12165;45.458;11.062;2022-07-29T10:18:13;34.00;99.90
23957;DHT22;12165;45.458;11.062;2022-07-29T10:20:42;34.00;99.90
23957;DHT22;12165;45.458;11.062;2022-07-29T10:23:10;34.10;99.90
23957;DHT22;12165;45.458;11.062;2022-07-29T10:25:37;33.60;99.90
23957;DHT22;12165;45.458;11.062;2022-07-29T10:28:05;33.70;99.90
23957;DHT22;12165;45.458;11.062;2022-07-29T10:30:32;33.70;99.90
23957;DHT22;12165;45.458;11.062;2022-07-29T10:44:28;34.10;99.90
23957;DHT22;12165;45.458;11.062;2022-07-29T10:46:55;33.90;99.90
23957;DHT22;12165;45.458;11.062;2022-07-29T10:49:25;34.20;99.90
23957;DHT22;12165;45.458;11.062;2022-07-29T10:52:05;34.40;99.90
23957;DHT22;12165;45.458;11.062;2022-07-29T10:54:36;34.50;99.90
23957;DHT22;12165;45.458;11.062;2022-07-29T11:02:44;34.70;99.90
23957;DHT22;12165;45.458;11.062;2022-07-29T11:05:16;34.90;99.90
23957;DHT22;12165;45.458;11.062;2022-07-29T11:13:50;35.10;99.90
23957;DHT22;12165;45.458;11.062;2022-07-29T11:16:19;35.00;99.90
23957;DHT22;12165;45.458;11.062;2022-07-29T11:21:42;35.20;99.90
23957;DHT22;12165;45.458;11.062;2022-07-29T11:24:30;35.40;99.90
23957;DHT22;12165;45.458;11.062;2022-07-29T11:27:08;34.90;99.90
23957;DHT22;12165;45.458;11.062;2022-07-29T11:29:35;34.60;99.90
23957;DHT22;12165;45.458;11.062;2022-07-29T11:32:14;34.20;99.90
23957;DHT22;12165;45.458;11.062;2022-07-29T11:34:49;34.00;99.90
23957;DHT22;12165;45.458;11.062;2022-07-29T11:37:18;34.50;99.90
23957;DHT22;12165;45.458;11.062;2022-07-29T11:48:03;35.70;99.90
23957;DHT22;12165;45.458;11.062;2022-07-29T11:50:52;36.00;99.90
23957;DHT22;12165;45.458;11.062;2022-07-29T11:53:20;35.50;99.90
23957;DHT22;12165;45.458;11.062;2022-07-29T11:55:54;35.20;99.90
23957;DHT22;12165;45.458;11.062;2022-07-29T11:58:23;35.40;99.90
23957;DHT22;12165;45.458;11.062;2022-07-29T12:00:52;35.30;99.90
23957;DHT22;12165;45.458;11.062;2022-07-29T12:03:26;35.40;99.90
23957;DHT22;12165;45.458;11.062;2022-07-29T12:06:01;35.50;99.90
23957;DHT22;12165;45.458;11.062;2022-07-29T12:08:28;35.50;99.90
23957;DHT22;12165;45.458;11.062;2022-07-29T12:10:56;35.70;99.90
23957;DHT22;12165;45.458;11.062;2022-07-29T12:13:23;36.40;99.90
23957;DHT22;12165;45.458;11.062;2022-07-29T12:16:04;36.40;99.90
23957;DHT22;12165;45.458;11.062;2022-07-29T12:18:31;36.40;99.90
23957;DHT22;12165;45.458;11.062;2022-07-29T12:21:00;36.10;99.90
23957;DHT22;12165;45.458;11.062;2022-07-29T12:23:31;35.90;99.90
23957;DHT22;12165;45.458;11.062;2022-07-29T12:26:00;36.40;99.90
23957;DHT22;12165;45.458;11.062;2022-07-29T12:28:30;36.40;99.90
23957;DHT22;12165;45.458;11.062;2022-07-29T12:30:57;36.40;99.90
23957;DHT22;12165;45.458;11.062;2022-07-29T12:33:27;36.40;99.90
23957;DHT22;12165;45.458;11.062;2022-07-29T12:35:57;36.80;99.90
23957;DHT22;12165;45.458;11.062;2022-07-29T12:38:34;36.70;99.90
23957;DHT22;12165;45.458;11.062;2022-07-29T12:41:02;35.90;99.90
23957;DHT22;12165;45.458;11.062;2022-07-29T12:43:30;35.50;99.90
23957;DHT22;12165;45.458;11.062;2022-07-29T12:46:10;35.60;99.90
23957;DHT22;12165;45.458;11.062;2022-07-29T12:48:39;35.70;99.90
23957;DHT22;12165;45.458;11.062;2022-07-29T12:51:08;35.60;99.90
23957;DHT22;12165;45.458;11.062;2022-07-29T12:53:36;35.20;99.90
23957;DHT22;12165;45.458;11.062;2022-07-29T12:56:04;35.50;99.90
23957;DHT22;12165;45.458;11.062;2022-07-29T12:58:46;35.50;99.90
23957;DHT22;12165;45.458;11.062;2022-07-29T13:01:19;35.50;99.90
23957;DHT22;12165;45.458;11.062;2022-07-29T13:03:54;35.80;99.90
23957;DHT22;12165;45.458;11.062;2022-07-29T13:06:44;36.20;99.60
23957;DHT22;12165;45.458;11.062;2022-07-29T13:09:20;36.00;99.80
23957;DHT22;12165;45.458;11.062;2022-07-29T13:11:52;35.90;99.80
23957;DHT22;12165;45.458;11.062;2022-07-29T13:17:15;35.50;99.70
23957;DHT22;12165;45.458;11.062;2022-07-29T13:19:53;35.40;99.90
23957;DHT22;12165;45.458;11.062;2022-07-29T13:22:34;35.40;99.90
23957;DHT22;12165;45.458;11.062;2022-07-29T13:25:02;35.40;99.90
23957;DHT22;12165;45.458;11.062;2022-07-29T13:27:31;35.60;99.80
23957;DHT22;12165;45.458;11.062;2022-07-29T13:30:00;35.60;99.30
23957;DHT22;12165;45.458;11.062;2022-07-29T13:32:29;35.70;99.20
23957;DHT22;12165;45.458;11.062;2022-07-29T13:35:00;35.70;98.80
23957;DHT22;12165;45.458;11.062;2022-07-29T13:37:32;35.40;99.00
23957;DHT22;12165;45.458;11.062;2022-07-29T13:40:02;35.30;98.10
23957;DHT22;12165;45.458;11.062;2022-07-29T13:42:31;35.70;99.10
23957;DHT22;12165;45.458;11.062;2022-07-29T13:44:59;36.00;98.00
23957;DHT22;12165;45.458;11.062;2022-07-29T13:47:26;35.70;97.40
23957;DHT22;12165;45.458;11.062;2022-07-29T13:50:00;36.10;97.60
23957;DHT22;12165;45.458;11.062;2022-07-29T13:52:27;35.90;98.00
23957;DHT22;12165;45.458;11.062;2022-07-29T13:54:55;35.70;97.80
23957;DHT22;12165;45.458;11.062;2022-07-29T13:57:22;35.60;97.60
23957;DHT22;12165;45.458;11.062;2022-07-29T13:59:49;35.80;96.90
23957;DHT22;12165;45.458;11.062;2022-07-29T14:02:21;36.00;97.00
23957;DHT22;12165;45.458;11.062;2022-07-29T14:04:52;36.20;98.90
23957;DHT22;12165;45.458;11.062;2022-07-29T14:07:21;35.80;97.70
23957;DHT22;12165;45.458;11.062;2022-07-29T14:09:48;35.10;98.00
23957;DHT22;12165;45.458;11.062;2022-07-29T14:12:14;34.70;98.50
23957;DHT22;12165;45.458;11.062;2022-07-29T14:14:41;34.40;98.80
23957;DHT22;12165;45.458;11.062;2022-07-29T14:17:08;34.60;98.60
23957;DHT22;12165;45.458;11.062;2022-07-29T14:19:36;34.60;98.80
23957;DHT22;12165;45.458;11.062;2022-07-29T14:22:06;34.80;98.90
23957;DHT22;12165;45.458;11.062;2022-07-29T14:24:35;34.70;99.00
23957;DHT22;12165;45.458;11.062;2022-07-29T14:27:04;34.70;98.90
23957;DHT22;12165;45.458;11.062;2022-07-29T14:29:31;34.50;98.40
23957;DHT22;12165;45.458;11.062;2022-07-29T14:32:07;34.60;98.50
23957;DHT22;12165;45.458;11.062;2022-07-29T14:34:35;34.60;98.30
23957;DHT22;12165;45.458;11.062;2022-07-29T14:37:03;34.70;98.60
23957;DHT22;12165;45.458;11.062;2022-07-29T14:39:33;34.80;98.30
23957;DHT22;12165;45.458;11.062;2022-07-29T14:42:08;34.70;98.30
23957;DHT22;12165;45.458;11.062;2022-07-29T14:44:37;34.70;98.60
23957;DHT22;12165;45.458;11.062;2022-07-29T14:47:04;34.90;98.60
23957;DHT22;12165;45.458;11.062;2022-07-29T14:49:34;34.80;98.30
23957;DHT22;12165;45.458;11.062;2022-07-29T14:52:02;34.60;98.50
23957;DHT22;12165;45.458;11.062;2022-07-29T14:54:29;34.40;99.40
23957;DHT22;12165;45.458;11.062;2022-07-29T14:56:56;34.10;99.30
23957;DHT22;12165;45.458;11.062;2022-07-29T14:59:25;34.30;99.50
23957;DHT22;12165;45.458;11.062;2022-07-29T15:01:52;34.10;99.90
23957;DHT22;12165;45.458;11.062;2022-07-29T15:04:19;34.10;99.60
23957;DHT22;12165;45.458;11.062;2022-07-29T15:06:46;33.90;99.60
23957;DHT22;12165;45.458;11.062;2022-07-29T15:09:13;33.50;99.60
23957;DHT22;12165;45.458;11.062;2022-07-29T15:11:40;33.30;99.90
23957;DHT22;12165;45.458;11.062;2022-07-29T15:14:08;33.30;99.90
23957;DHT22;12165;45.458;11.062;2022-07-29T15:16:36;33.00;99.90
23957;DHT22;12165;45.458;11.062;2022-07-29T15:19:04;32.80;99.90
23957;DHT22;12165;45.458;11.062;2022-07-29T15:21:31;32.60;99.90
23957;DHT22;12165;45.458;11.062;2022-07-29T15:23:58;32.50;99.90
23957;DHT22;12165;45.458;11.062;2022-07-29T15:26:25;32.40;99.90
23957;DHT22;12165;45.458;11.062;2022-07-29T15:28:52;32.60;99.90
23957;DHT22;12165;45.458;11.062;2022-07-29T15:31:20;32.50;99.90
23957;DHT22;12165;45.458;11.062;2022-07-29T15:33:47;32.50;99.90
23957;DHT22;12165;45.458;11.062;2022-07-29T15:36:14;32.30;99.90
23957;DHT22;12165;45.458;11.062;2022-07-29T15:39:01;32.10;99.90
23957;DHT22;12165;45.458;11.062;2022-07-29T15:41:28;32.10;99.90
23957;DHT22;12165;45.458;11.062;2022-07-29T15:43:55;32.10;99.90
23957;DHT22;12165;45.458;11.062;2022-07-29T15:46:22;32.20;99.90
23957;DHT22;12165;45.458;11.062;2022-07-29T15:49:08;32.10;99.90
23957;DHT22;12165;45.458;11.062;2022-07-29T15:51:35;32.10;99.90
23957;DHT22;12165;45.458;11.062;2022-07-29T15:54:02;32.00;99.90
23957;DHT22;12165;45.458;11.062;2022-07-29T15:56:30;31.90;99.90
23957;DHT22;12165;45.458;11.062;2022-07-29T15:58:58;32.00;99.90
23957;DHT22;12165;45.458;11.062;2022-07-29T16:01:26;31.80;99.90
23957;DHT22;12165;45.458;11.062;2022-07-29T16:03:53;31.70;99.90
23957;DHT22;12165;45.458;11.062;2022-07-29T16:06:20;31.70;99.90
23957;DHT22;12165;45.458;11.062;2022-07-29T16:08:47;31.80;99.90
23957;DHT22;12165;45.458;11.062;2022-07-29T16:11:14;31.70;99.90
23957;DHT22;12165;45.458;11.062;2022-07-29T16:13:41;31.60;99.90
23957;DHT22;12165;45.458;11.062;2022-07-29T16:16:09;31.50;99.90
23957;DHT22;12165;45.458;11.062;2022-07-29T16:18:36;31.60;99.90
23957;DHT22;12165;45.458;11.062;2022-07-29T16:21:03;31.40;99.90
23957;DHT22;12165;45.458;11.062;2022-07-29T16:23:30;31.20;99.90